Time;durP1;ratioP1;P1;durP2;ratioP2;P2;SDS_P1;SDS_P2;PMS_P1;PMS_P2;Temp;Humidity;BMP_temperature;BMP_pressure;BME280_temperature;BME280_humidity;BME280_pressure;Samples;Min_cycle;Max_cycle;Signal;HPM_P1;HPM_P2
2023/04/22 00:00:53;;;;;;;15.40;14.70;;;13.40;99.90;;;;;;5076571;28;20471;-82
2023/04/22 00:03:22;;;;;;;15.67;15.07;;;13.40;99.90;;;;;;5064230;28;20494;-79
2023/04/22 00:05:50;;;;;;;16.70;16.00;;;13.40;99.90;;;;;;5071941;28;20471;-81
2023/04/22 00:08:19;;;;;;;16.77;16.00;;;13.40;99.90;;;;;;5077146;28;20984;-83
2023/04/22 00:10:48;;;;;;;15.40;14.80;;;13.40;99.90;;;;;;5081017;28;20486;-81
2023/04/22 00:13:16;;;;;;;15.77;15.23;;;13.40;99.90;;;;;;5076194;28;20460;-81
2023/04/22 00:15:45;;;;;;;15.70;15.00;;;13.40;99.90;;;;;;5074043;28;20444;-82
2023/04/22 00:18:14;;;;;;;15.73;15.10;;;13.40;99.90;;;;;;5078607;28;20530;-82
2023/04/22 00:20:43;;;;;;;15.30;14.80;;;13.40;99.90;;;;;;5075031;28;20818;-80
2023/04/22 00:23:12;;;;;;;14.80;14.40;;;13.40;99.90;;;;;;5079950;28;20460;-84
2023/04/22 00:25:40;;;;;;;16.20;15.30;;;13.40;99.90;;;;;;5081386;28;20509;-80
2023/04/22 00:28:10;;;;;;;16.00;15.40;;;13.30;99.90;;;;;;5087219;28;20484;-80
2023/04/22 00:30:38;;;;;;;15.60;14.80;;;13.30;99.90;;;;;;5084714;28;21022;-79
2023/04/22 00:33:06;;;;;;;15.50;14.80;;;13.20;99.90;;;;;;5086689;28;20452;-79
2023/04/22 00:35:35;;;;;;;15.27;14.67;;;13.10;99.90;;;;;;5085137;28;20993;-80
2023/04/22 00:38:03;;;;;;;16.20;15.50;;;13.10;99.90;;;;;;5084396;28;20459;-79
2023/04/22 00:40:31;;;;;;;14.90;14.33;;;13.10;99.90;;;;;;5087619;28;20481;-81
2023/04/22 00:43:00;;;;;;;15.17;14.67;;;13.10;99.90;;;;;;5083039;28;20456;-83
2023/04/22 00:45:31;;;;;;;14.90;14.30;;;13.00;99.90;;;;;;5086228;28;20545;-81
2023/04/22 00:48:00;;;;;;;15.27;14.70;;;13.00;99.90;;;;;;5085586;28;20469;-79
2023/04/22 00:50:28;;;;;;;15.07;14.47;;;13.00;99.90;;;;;;5082651;28;20854;-81
2023/04/22 00:52:56;;;;;;;15.23;14.60;;;12.90;99.90;;;;;;5083155;28;20448;-80
2023/04/22 00:55:25;;;;;;;16.30;15.70;;;12.90;99.90;;;;;;5086511;28;20463;-81
2023/04/22 00:57:55;;;;;;;15.60;15.00;;;12.90;99.90;;;;;;5080871;28;20440;-82
2023/04/22 01:00:25;;;;;;;15.43;14.73;;;12.90;99.90;;;;;;5082190;28;20477;-81
2023/04/22 01:02:56;;;;;;;15.10;14.50;;;12.90;99.90;;;;;;5087370;28;20558;-81
2023/04/22 01:05:25;;;;;;;14.90;14.20;;;12.90;99.90;;;;;;5079574;28;20469;-85
2023/04/22 01:07:53;;;;;;;15.10;14.60;;;12.90;99.90;;;;;;5084254;28;20466;-83
2023/04/22 01:10:22;;;;;;;15.60;15.00;;;12.90;1.00;;;;;;5087457;28;20527;-84
2023/04/22 01:12:50;;;;;;;15.67;15.17;;;12.80;1.00;;;;;;5088149;28;20466;-81
2023/04/22 01:15:18;;;;;;;16.07;15.47;;;12.90;1.00;;;;;;5089331;28;20515;-81
2023/04/22 01:17:47;;;;;;;15.40;14.90;;;12.80;1.00;;;;;;5085293;28;20446;-84
2023/04/22 01:20:18;;;;;;;15.90;15.20;;;12.80;1.00;;;;;;5093237;28;20483;-85
2023/04/22 01:22:48;;;;;;;15.00;14.50;;;12.70;1.00;;;;;;5087989;28;21267;-85
2023/04/22 01:25:18;;;;;;;15.60;15.10;;;12.70;1.00;;;;;;5088525;28;20460;-80
2023/04/22 01:27:46;;;;;;;16.00;15.40;;;12.70;1.00;;;;;;5090271;28;20525;-81
2023/04/22 01:30:15;;;;;;;15.60;15.00;;;12.70;1.00;;;;;;5085005;28;20475;-82
2023/04/22 01:32:43;;;;;;;15.77;15.03;;;12.70;1.00;;;;;;5090359;28;20491;-82
2023/04/22 01:35:12;;;;;;;15.70;15.10;;;12.70;1.00;;;;;;5084263;28;20490;-83
2023/04/22 01:37:40;;;;;;;15.27;14.77;;;12.70;1.00;;;;;;5088760;28;20531;-82
2023/04/22 01:40:10;;;;;;;14.93;14.43;;;12.70;1.00;;;;;;5090500;28;20471;-84
2023/04/22 01:42:39;;;;;;;15.00;14.50;;;12.70;1.00;;;;;;5087705;28;20514;-84
2023/04/22 01:45:08;;;;;;;14.30;13.70;;;12.60;1.00;;;;;;5084947;28;20443;-82
2023/04/22 01:47:37;;;;;;;14.30;13.90;;;12.60;1.00;;;;;;5084429;28;20483;-83
2023/04/22 01:50:06;;;;;;;15.00;14.50;;;12.60;1.00;;;;;;5089823;28;21158;-87
2023/04/22 01:52:35;;;;;;;14.97;14.47;;;12.50;1.00;;;;;;5089343;28;20463;-85
2023/04/22 01:55:03;;;;;;;14.73;14.33;;;12.50;1.00;;;;;;5083212;28;20459;-81
2023/04/22 01:57:32;;;;;;;15.30;14.80;;;12.50;1.00;;;;;;5086042;28;20479;-85
2023/04/22 02:00:01;;;;;;;15.17;14.67;;;12.50;1.00;;;;;;5088548;28;20472;-86
2023/04/22 02:02:30;;;;;;;15.47;14.97;;;12.50;1.00;;;;;;5083835;28;20473;-83
2023/04/22 02:04:58;;;;;;;15.03;14.57;;;12.50;1.00;;;;;;5087818;28;20463;-83
2023/04/22 02:07:26;;;;;;;15.70;15.03;;;12.40;1.00;;;;;;5090121;28;20507;-88
2023/04/22 02:09:54;;;;;;;16.17;15.57;;;12.50;1.00;;;;;;5090881;28;20471;-85
2023/04/22 02:12:22;;;;;;;16.47;15.87;;;12.50;1.00;;;;;;5089382;28;20442;-83
2023/04/22 02:14:50;;;;;;;16.43;15.70;;;12.50;1.00;;;;;;5084956;28;20450;-83
2023/04/22 02:18:03;;;;;;;16.57;15.80;;;12.40;1.00;;;;;;5093955;28;20462;-86
2023/04/22 02:20:33;;;;;;;15.30;14.70;;;12.40;19.30;;;;;;5090894;28;21210;-83
2023/04/22 02:23:01;;;;;;;17.33;16.63;;;12.40;6.90;;;;;;5089232;28;20463;-82
2023/04/22 02:25:30;;;;;;;15.07;14.57;;;12.40;1.00;;;;;;5081185;28;20456;-80
2023/04/22 02:27:58;;;;;;;15.90;15.30;;;12.40;3.10;;;;;;5087878;28;20474;-83
2023/04/22 02:30:27;;;;;;;14.90;14.27;;;12.40;1.00;;;;;;5082491;28;21054;-82
2023/04/22 02:32:55;;;;;;;15.27;14.70;;;12.40;1.00;;;;;;5084748;28;20452;-83
2023/04/22 02:35:24;;;;;;;15.20;14.50;;;12.30;1.00;;;;;;5081717;28;20467;-82
2023/04/22 02:37:53;;;;;;;15.00;14.50;;;12.40;1.00;;;;;;5084073;28;20438;-83
2023/04/22 02:40:21;;;;;;;15.40;14.90;;;12.40;1.00;;;;;;5082174;28;20465;-82
2023/04/22 02:42:49;;;;;;;15.13;14.43;;;12.40;1.00;;;;;;5084664;28;20455;-84
2023/04/22 02:45:18;;;;;;;14.90;14.40;;;12.40;1.00;;;;;;5085514;28;20535;-82
2023/04/22 02:47:46;;;;;;;15.20;14.70;;;12.40;1.00;;;;;;5086185;28;20467;-83
2023/04/22 02:50:14;;;;;;;15.63;15.03;;;12.40;1.00;;;;;;5079297;28;20601;-84
2023/04/22 02:52:42;;;;;;;15.40;14.80;;;12.40;1.00;;;;;;5086891;28;20455;-84
2023/04/22 02:55:20;;;;;;;15.43;14.83;;;12.40;1.00;;;;;;5091779;28;20463;-83
2023/04/22 02:57:48;;;;;;;15.50;14.90;;;12.30;1.00;;;;;;5085767;28;21031;-82
2023/04/22 03:00:17;;;;;;;15.73;15.07;;;12.20;1.00;;;;;;5081312;28;20473;-81
2023/04/22 03:02:45;;;;;;;15.40;14.80;;;12.20;1.00;;;;;;5079813;28;20562;-82
2023/04/22 03:05:14;;;;;;;15.20;14.70;;;12.20;1.00;;;;;;5082766;28;20468;-82
2023/04/22 03:07:43;;;;;;;15.17;14.67;;;12.10;1.00;;;;;;5083914;28;21014;-81
2023/04/22 03:10:12;;;;;;;15.30;14.73;;;12.10;1.00;;;;;;5083969;28;20521;-80
2023/04/22 03:12:41;;;;;;;15.30;14.80;;;12.10;1.00;;;;;;5083405;28;20443;-79
2023/04/22 03:15:10;;;;;;;15.97;15.37;;;12.10;1.00;;;;;;5081234;28;20450;-83
2023/04/22 03:17:38;;;;;;;14.77;14.37;;;12.00;1.00;;;;;;5082449;28;20461;-81
2023/04/22 03:20:07;;;;;;;14.73;14.33;;;12.00;1.00;;;;;;5081385;28;20474;-85
2023/04/22 03:22:35;;;;;;;15.47;14.87;;;12.00;1.00;;;;;;5088285;28;20445;-82
2023/04/22 03:25:05;;;;;;;16.20;15.27;;;12.00;1.00;;;;;;5085140;28;20964;-82
2023/04/22 03:27:34;;;;;;;15.03;14.47;;;12.00;1.00;;;;;;5083495;28;20462;-82
2023/04/22 03:30:03;;;;;;;14.47;14.07;;;12.00;1.00;;;;;;5086653;28;20501;-84
2023/04/22 03:32:31;;;;;;;15.50;14.63;;;11.90;1.00;;;;;;5083202;28;20461;-84
2023/04/22 03:35:00;;;;;;;15.43;14.73;;;11.90;1.00;;;;;;5084009;28;20489;-82
2023/04/22 03:37:28;;;;;;;14.90;14.40;;;11.80;1.00;;;;;;5085183;28;20454;-81
2023/04/22 03:39:56;;;;;;;15.67;15.07;;;11.80;1.00;;;;;;5083290;28;20518;-83
2023/04/22 03:42:24;;;;;;;15.70;14.80;;;11.80;1.00;;;;;;5085629;28;20462;-83
2023/04/22 03:44:54;;;;;;;14.80;14.40;;;11.80;1.00;;;;;;5086295;28;20489;-84
2023/04/22 03:47:22;;;;;;;15.07;14.57;;;11.80;1.00;;;;;;5084612;28;20454;-83
2023/04/22 03:49:50;;;;;;;15.80;15.20;;;11.80;34.30;;;;;;5085946;28;20482;-80
2023/04/22 03:52:18;;;;;;;16.37;15.63;;;11.80;10.00;;;;;;5083615;28;20537;-82
2023/04/22 03:54:46;;;;;;;16.50;15.40;;;11.80;14.80;;;;;;5087781;28;20455;-84
2023/04/22 03:57:15;;;;;;;14.83;14.33;;;11.80;1.00;;;;;;5083046;28;20478;-82
2023/04/22 03:59:43;;;;;;;15.13;14.63;;;11.90;1.00;;;;;;5081694;28;20478;-84
2023/04/22 04:02:12;;;;;;;15.33;14.73;;;11.90;1.00;;;;;;5086065;28;20460;-81
2023/04/22 04:04:41;;;;;;;14.10;13.60;;;11.90;1.00;;;;;;5086337;28;20459;-82
2023/04/22 04:07:09;;;;;;;14.37;13.83;;;12.00;1.00;;;;;;5078164;28;20443;-83
2023/04/22 04:09:38;;;;;;;14.90;14.43;;;12.10;1.00;;;;;;5083072;28;20505;-81
2023/04/22 04:12:06;;;;;;;15.43;14.53;;;12.20;1.00;;;;;;5087630;28;20526;-82
2023/04/22 04:14:35;;;;;;;14.37;13.87;;;12.30;99.90;;;;;;5082009;28;20490;-82
2023/04/22 04:17:03;;;;;;;14.07;13.67;;;12.40;99.90;;;;;;5084087;28;20458;-83
2023/04/22 04:19:33;;;;;;;14.17;13.77;;;12.50;99.90;;;;;;5092938;28;20516;-84
2023/04/22 04:22:01;;;;;;;14.93;14.43;;;12.50;99.90;;;;;;5094117;28;20486;-82
2023/04/22 04:24:29;;;;;;;14.17;13.77;;;12.40;99.90;;;;;;5085954;28;20461;-83
2023/04/22 04:26:58;;;;;;;14.30;13.70;;;12.50;99.90;;;;;;5086571;28;20456;-84
2023/04/22 04:29:26;;;;;;;14.40;13.90;;;12.50;99.90;;;;;;5078927;28;20485;-83
2023/04/22 04:31:55;;;;;;;14.23;13.73;;;12.50;99.90;;;;;;5081561;28;20475;-83
2023/04/22 04:34:24;;;;;;;14.20;13.87;;;12.60;99.90;;;;;;5088229;28;20809;-83
2023/04/22 04:36:54;;;;;;;14.43;14.03;;;12.60;99.90;;;;;;5084155;28;21735;-83
2023/04/22 04:39:25;;;;;;;14.53;14.03;;;12.60;99.90;;;;;;5084325;28;20477;-83
2023/04/22 04:41:57;;;;;;;14.20;13.80;;;12.60;99.90;;;;;;5073935;28;21021;-85
2023/04/22 04:44:26;;;;;;;14.77;14.07;;;12.60;99.90;;;;;;5075079;28;20218;-84
2023/04/22 04:46:55;;;;;;;14.17;13.57;;;12.60;99.90;;;;;;5074136;28;20478;-83
2023/04/22 04:49:23;;;;;;;14.37;13.97;;;12.60;99.90;;;;;;5073715;28;20483;-83
2023/04/22 04:51:53;;;;;;;15.03;14.57;;;12.60;99.90;;;;;;5075050;28;20841;-83
2023/04/22 04:54:21;;;;;;;14.43;13.83;;;12.70;99.90;;;;;;5073325;28;20777;-81
2023/04/22 04:56:49;;;;;;;14.40;13.90;;;12.70;99.90;;;;;;5077965;28;20494;-83
2023/04/22 04:59:17;;;;;;;14.77;14.37;;;12.70;99.90;;;;;;5072887;28;20476;-83
2023/04/22 05:01:46;;;;;;;14.63;14.23;;;12.70;99.90;;;;;;5072733;28;20800;-83
2023/04/22 05:04:14;;;;;;;15.73;15.03;;;12.80;99.90;;;;;;5077268;28;20470;-83
2023/04/22 05:06:43;;;;;;;15.80;15.20;;;12.80;99.90;;;;;;5067296;28;20479;-83
2023/04/22 05:09:12;;;;;;;15.80;15.20;;;12.70;99.90;;;;;;5073661;28;20488;-82
2023/04/22 05:11:41;;;;;;;14.90;14.40;;;12.70;99.90;;;;;;5077096;28;20459;-82
2023/04/22 05:14:09;;;;;;;16.07;15.40;;;12.70;99.90;;;;;;5081560;28;20479;-81
2023/04/22 05:16:37;;;;;;;15.10;14.50;;;12.60;99.90;;;;;;5079593;28;20446;-82
2023/04/22 05:19:05;;;;;;;15.87;15.07;;;12.60;99.90;;;;;;5073224;28;20556;-84
2023/04/22 05:21:33;;;;;;;15.57;15.07;;;12.60;99.90;;;;;;5078634;28;20453;-83
2023/04/22 05:24:02;;;;;;;15.33;14.83;;;12.60;99.90;;;;;;5077740;28;20794;-83
2023/04/22 05:26:31;;;;;;;15.10;14.60;;;12.60;99.90;;;;;;5073743;28;20827;-83
2023/04/22 05:28:59;;;;;;;15.00;14.40;;;12.60;99.90;;;;;;5078014;28;20507;-82
2023/04/22 05:31:28;;;;;;;15.60;15.10;;;12.60;99.90;;;;;;5074951;28;20818;-82
2023/04/22 05:33:56;;;;;;;15.50;15.10;;;12.60;99.90;;;;;;5077384;28;20448;-83
2023/04/22 05:36:26;;;;;;;15.33;14.83;;;12.60;99.90;;;;;;5076642;28;20451;-83
2023/04/22 05:38:58;;;;;;;15.17;14.77;;;12.70;99.90;;;;;;5074862;28;20483;-83
2023/04/22 05:41:26;;;;;;;15.60;15.10;;;12.70;99.90;;;;;;5080717;28;20450;-83
2023/04/22 05:43:56;;;;;;;15.73;15.23;;;12.70;99.90;;;;;;5079917;28;20454;-84
2023/04/22 05:46:24;;;;;;;15.23;14.73;;;12.80;99.90;;;;;;5081292;28;20464;-83
2023/04/22 05:48:53;;;;;;;15.87;15.37;;;12.80;99.90;;;;;;5078243;28;20453;-83
2023/04/22 05:51:22;;;;;;;16.03;15.53;;;12.90;99.90;;;;;;5078587;28;20863;-81
2023/04/22 05:53:50;;;;;;;16.07;15.43;;;12.90;99.90;;;;;;5080842;28;20461;-82
2023/04/22 05:56:19;;;;;;;16.03;15.43;;;12.90;1.00;;;;;;5079072;28;20854;-83
2023/04/22 05:58:48;;;;;;;16.57;15.70;;;13.10;1.00;;;;;;5077700;28;20457;-83
2023/04/22 06:01:17;;;;;;;17.50;16.70;;;13.00;1.00;;;;;;5078465;28;20462;-85
2023/04/22 06:03:45;;;;;;;16.30;15.70;;;13.10;1.00;;;;;;5074937;28;20469;-84
2023/04/22 06:06:14;;;;;;;16.37;15.67;;;13.10;1.00;;;;;;5069951;28;20463;-82
2023/04/22 06:08:42;;;;;;;16.67;16.17;;;13.20;1.00;;;;;;5076347;28;20474;-83
2023/04/22 06:11:11;;;;;;;17.07;16.47;;;13.20;1.00;;;;;;5079488;28;20893;-84
2023/04/22 06:13:39;;;;;;;17.45;16.75;;;13.30;1.00;;;;;;5081013;28;20411;-81
2023/04/22 06:16:07;;;;;;;18.37;17.63;;;13.40;1.00;;;;;;5080310;28;20239;-83
2023/04/22 06:18:42;;;;;;;18.40;17.80;;;13.60;1.00;;;;;;5091091;28;20484;-82
2023/04/22 06:21:10;;;;;;;18.23;17.53;;;14.00;1.00;;;;;;5085534;28;20961;-85
2023/04/22 06:23:39;;;;;;;18.40;17.60;;;14.30;99.90;;;;;;5085797;28;20450;-83
2023/04/22 06:26:07;;;;;;;18.10;17.40;;;14.50;99.90;;;;;;5084600;28;20547;-85
2023/04/22 06:28:36;;;;;;;19.20;18.20;;;14.50;99.90;;;;;;5081746;28;20442;-81
2023/04/22 06:31:04;;;;;;;18.93;18.20;;;14.40;99.90;;;;;;5081300;28;20568;-83
2023/04/22 06:33:32;;;;;;;17.90;17.20;;;14.40;99.90;;;;;;5076674;28;20451;-83
2023/04/22 06:36:03;;;;;;;18.43;17.63;;;14.30;99.90;;;;;;5080520;28;20505;-82
2023/04/22 06:38:31;;;;;;;18.40;17.50;;;14.30;99.90;;;;;;5082641;28;20476;-84
2023/04/22 06:41:00;;;;;;;18.60;17.80;;;14.30;99.90;;;;;;5081411;28;20478;-82
2023/04/22 06:43:28;;;;;;;18.27;17.50;;;14.20;1.00;;;;;;5077643;28;20514;-81
2023/04/22 06:45:56;;;;;;;17.90;17.20;;;14.20;99.90;;;;;;5078848;28;20469;-80
2023/04/22 06:48:26;;;;;;;18.40;17.70;;;14.20;1.00;;;;;;5076703;28;20491;-79
2023/04/22 06:50:54;;;;;;;18.20;17.50;;;14.10;1.00;;;;;;5067956;28;20569;-78
2023/04/22 06:53:23;;;;;;;18.73;17.90;;;14.10;1.00;;;;;;5072582;28;20451;-78
2023/04/22 06:55:52;;;;;;;17.80;17.20;;;14.10;1.00;;;;;;5074544;28;20500;-81
2023/04/22 06:58:21;;;;;;;18.63;17.70;;;14.00;1.00;;;;;;5075540;28;20446;-81
2023/04/22 07:00:49;;;;;;;17.80;17.10;;;14.10;1.00;;;;;;5076126;28;20472;-82
2023/04/22 07:03:17;;;;;;;17.97;17.10;;;14.20;1.00;;;;;;5080458;28;21235;-81
2023/04/22 07:05:47;;;;;;;18.73;17.93;;;14.20;1.00;;;;;;5069579;28;20475;-81
2023/04/22 07:08:15;;;;;;;18.23;17.63;;;14.30;1.00;;;;;;5071329;28;20454;-81
2023/04/22 07:10:45;;;;;;;17.90;17.30;;;14.20;1.00;;;;;;5071855;28;20483;-81
2023/04/22 07:13:13;;;;;;;18.53;17.80;;;14.30;1.00;;;;;;5075184;28;20533;-80
2023/04/22 07:15:41;;;;;;;18.70;18.00;;;14.30;1.00;;;;;;5074933;28;20507;-80
2023/04/22 07:18:09;;;;;;;19.40;18.50;;;14.30;1.00;;;;;;5075986;28;20445;-82
2023/04/22 07:20:37;;;;;;;21.30;20.10;;;14.30;1.00;;;;;;5078645;28;20476;-83
2023/04/22 07:23:06;;;;;;;23.20;21.83;;;14.30;1.00;;;;;;5079843;28;20985;-83
2023/04/22 07:25:34;;;;;;;20.80;19.73;;;14.30;1.00;;;;;;5076138;28;20465;-82
2023/04/22 07:28:03;;;;;;;25.42;23.92;;;14.40;1.00;;;;;;5077858;28;20444;-84
2023/04/22 07:30:32;;;;;;;19.80;18.50;;;14.40;1.00;;;;;;5081595;28;20234;-83
2023/04/22 07:33:00;;;;;;;19.57;18.77;;;14.50;1.00;;;;;;5077261;28;20446;-83
2023/04/22 07:35:28;;;;;;;18.10;17.50;;;14.60;1.00;;;;;;5077897;28;20457;-82
2023/04/22 07:37:56;;;;;;;17.60;16.93;;;14.60;99.90;;;;;;5068052;28;20492;-82
2023/04/22 07:40:25;;;;;;;18.07;17.47;;;14.60;99.90;;;;;;5071212;28;20492;-83
2023/04/22 07:42:53;;;;;;;17.97;17.37;;;14.70;99.90;;;;;;5075131;28;20449;-82
2023/04/22 07:45:22;;;;;;;17.63;16.97;;;14.70;99.90;;;;;;5075287;28;20546;-83
2023/04/22 07:47:51;;;;;;;18.60;17.70;;;14.80;99.90;;;;;;5084679;28;20457;-82
2023/04/22 07:50:19;;;;;;;19.00;18.20;;;14.80;99.90;;;;;;5078380;28;20479;-84
2023/04/22 07:52:47;;;;;;;18.10;17.50;;;14.90;99.90;;;;;;5078551;28;20485;-82
2023/04/22 07:55:16;;;;;;;17.27;16.63;;;14.90;99.90;;;;;;5073042;28;20457;-86
2023/04/22 07:57:45;;;;;;;18.27;17.30;;;14.90;99.90;;;;;;5079767;28;20493;-87
2023/04/22 08:00:14;;;;;;;17.00;16.33;;;14.90;99.90;;;;;;5086890;28;20507;-87
2023/04/22 08:02:45;;;;;;;16.90;16.30;;;15.00;99.90;;;;;;5085034;28;20555;-88
2023/04/22 08:05:13;;;;;;;17.10;16.47;;;15.00;99.90;;;;;;5082631;28;20465;-86
2023/04/22 08:07:42;;;;;;;18.20;17.60;;;15.00;99.90;;;;;;5081126;28;20455;-88
2023/04/22 08:10:11;;;;;;;16.90;16.40;;;15.00;99.90;;;;;;5090176;28;20504;-88
2023/04/22 08:12:39;;;;;;;17.63;17.00;;;15.10;99.90;;;;;;5081567;28;20496;-88
2023/04/22 08:15:08;;;;;;;17.20;16.60;;;15.10;99.90;;;;;;5087321;28;20456;-87
2023/04/22 08:17:36;;;;;;;17.57;17.00;;;15.10;99.90;;;;;;5084739;28;20578;-88
2023/04/22 08:20:07;;;;;;;16.70;16.10;;;15.20;99.90;;;;;;5081472;28;20473;-87
2023/04/22 08:22:35;;;;;;;18.13;17.43;;;15.30;99.90;;;;;;5083619;28;20825;-88
2023/04/22 08:25:05;;;;;;;17.30;16.70;;;15.30;99.90;;;;;;5082932;28;20555;-87
2023/04/22 08:27:33;;;;;;;17.20;16.60;;;15.40;99.90;;;;;;5084794;28;20454;-89
2023/04/22 08:30:02;;;;;;;17.30;16.70;;;15.40;99.90;;;;;;5086059;28;20492;-89
2023/04/22 08:32:30;;;;;;;18.23;17.53;;;15.40;99.90;;;;;;5089046;28;20825;-91
2023/04/22 08:34:58;;;;;;;17.63;17.10;;;15.50;99.90;;;;;;5087515;28;20491;-92
2023/04/22 08:37:34;;;;;;;17.70;17.10;;;15.60;99.90;;;;;;5082970;28;20454;-88
2023/04/22 08:40:03;;;;;;;17.25;16.75;;;15.60;99.90;;;;;;5078671;28;20448;-86
2023/04/22 08:42:32;;;;;;;18.17;17.50;;;15.70;99.90;;;;;;5085109;28;20202;-86
2023/04/22 08:45:02;;;;;;;17.17;16.57;;;15.70;99.90;;;;;;5088597;28;20454;-85
2023/04/22 08:47:32;;;;;;;16.87;16.27;;;15.80;99.90;;;;;;5086744;28;20457;-88
2023/04/22 08:50:04;;;;;;;16.47;16.00;;;15.80;99.90;;;;;;5080790;28;21285;-88
2023/04/22 08:52:33;;;;;;;16.27;15.87;;;16.00;99.90;;;;;;5088633;28;20573;-89
2023/04/22 08:55:03;;;;;;;16.17;15.67;;;16.00;99.90;;;;;;5085836;28;20466;-88
2023/04/22 08:57:31;;;;;;;16.08;15.57;;;16.10;99.90;;;;;;5081307;28;20502;-84
2023/04/22 09:00:00;;;;;;;15.87;15.47;;;16.10;99.90;;;;;;5082304;28;20228;-84
2023/04/22 09:02:31;;;;;;;14.37;14.00;;;16.20;99.90;;;;;;5079726;28;20453;-83
2023/04/22 09:05:02;;;;;;;14.00;13.70;;;16.30;99.90;;;;;;5085063;28;20452;-83
2023/04/22 09:07:34;;;;;;;14.97;14.30;;;16.40;99.90;;;;;;5084368;28;20455;-84
2023/04/22 09:10:03;;;;;;;14.50;14.10;;;16.50;99.90;;;;;;5084723;28;20477;-85
2023/04/22 09:12:31;;;;;;;14.77;14.27;;;16.60;99.90;;;;;;5082749;28;20508;-84
2023/04/22 09:14:59;;;;;;;14.57;14.17;;;16.80;99.90;;;;;;5089131;28;20913;-82
2023/04/22 09:17:31;;;;;;;14.70;14.20;;;16.90;99.90;;;;;;5082536;28;20451;-82
2023/04/22 09:20:02;;;;;;;14.90;14.50;;;16.80;99.90;;;;;;5083222;28;20809;-85
2023/04/22 09:22:39;;;;;;;14.57;14.07;;;16.90;99.90;;;;;;5080697;28;21019;-85
2023/04/22 09:25:16;;;;;;;15.10;14.70;;;17.00;99.90;;;;;;5086972;28;21477;-84
2023/04/22 09:27:49;;;;;;;15.03;14.43;;;17.00;99.90;;;;;;5083528;28;21030;-84
2023/04/22 09:30:19;;;;;;;14.70;14.30;;;17.10;99.90;;;;;;5084517;28;20463;-85
2023/04/22 09:32:54;;;;;;;14.27;13.97;;;17.20;99.90;;;;;;5085615;28;20475;-85
2023/04/22 09:35:30;;;;;;;14.20;13.87;;;17.20;99.90;;;;;;5087133;28;20538;-85
2023/04/22 09:38:01;;;;;;;14.00;13.60;;;17.30;99.90;;;;;;5076481;28;20463;-85
2023/04/22 09:40:31;;;;;;;13.90;13.60;;;17.30;99.90;;;;;;5080805;28;20507;-85
2023/04/22 09:43:02;;;;;;;13.23;12.80;;;17.30;99.90;;;;;;5079690;28;20467;-83
2023/04/22 09:45:32;;;;;;;12.80;12.50;;;17.40;99.90;;;;;;5081745;28;20724;-83
2023/04/22 09:48:03;;;;;;;12.52;12.23;;;17.40;99.90;;;;;;5076270;28;20460;-81
2023/04/22 09:50:31;;;;;;;12.60;12.30;;;17.40;99.90;;;;;;5084336;28;20222;-83
2023/04/22 09:53:03;;;;;;;12.40;12.10;;;17.70;99.90;;;;;;5087659;28;20486;-82
2023/04/22 09:55:34;;;;;;;12.50;12.13;;;17.80;99.90;;;;;;5088556;28;21174;-84
2023/04/22 09:58:07;;;;;;;12.03;11.83;;;17.80;99.90;;;;;;5086372;28;20450;-82
2023/04/22 10:00:40;;;;;;;11.13;10.93;;;17.90;99.90;;;;;;5087506;28;20864;-83
2023/04/22 10:03:08;;;;;;;11.43;11.13;;;17.90;99.90;;;;;;5087849;28;20465;-84
2023/04/22 10:05:40;;;;;;;11.47;11.00;;;18.00;99.90;;;;;;5087444;28;20449;-84
2023/04/22 10:08:10;;;;;;;11.53;11.13;;;18.00;99.90;;;;;;5080795;28;20446;-82
2023/04/22 10:10:39;;;;;;;12.03;11.53;;;18.00;99.90;;;;;;5081293;28;20509;-80
2023/04/22 10:13:08;;;;;;;11.80;11.60;;;18.20;99.90;;;;;;5079522;28;20494;-82
2023/04/22 10:15:40;;;;;;;12.20;11.90;;;18.10;99.90;;;;;;5075520;28;20477;-82
2023/04/22 10:18:11;;;;;;;15.97;14.30;;;18.20;99.90;;;;;;5083474;28;20475;-82
2023/04/22 10:20:42;;;;;;;11.93;11.70;;;18.40;99.90;;;;;;5081044;28;20509;-84
2023/04/22 10:23:21;;;;;;;11.53;11.23;;;18.60;99.90;;;;;;5081476;28;20532;-81
2023/04/22 10:25:52;;;;;;;11.87;11.00;;;18.60;99.90;;;;;;5085425;28;20506;-81
2023/04/22 10:28:23;;;;;;;10.50;10.30;;;18.60;99.90;;;;;;5076542;28;20467;-83
2023/04/22 10:30:51;;;;;;;10.97;10.50;;;18.50;99.90;;;;;;5083543;28;21023;-82
2023/04/22 10:33:38;;;;;;;10.40;10.10;;;18.60;99.90;;;;;;5085635;28;20516;-81
2023/04/22 10:36:09;;;;;;;10.43;10.00;;;18.70;99.90;;;;;;5086968;28;20479;-82
2023/04/22 10:38:40;;;;;;;10.03;9.83;;;18.80;99.90;;;;;;5077823;28;20450;-81
2023/04/22 10:41:14;;;;;;;10.77;10.40;;;18.80;99.90;;;;;;5079081;28;20554;-83
2023/04/22 10:43:44;;;;;;;10.80;10.50;;;18.80;99.90;;;;;;5084190;28;20715;-82
2023/04/22 10:46:48;;;;;;;10.40;10.20;;;18.80;99.90;;;;;;5082300;28;20461;-81
2023/04/22 10:49:20;;;;;;;9.83;9.53;;;18.90;99.90;;;;;;5066243;28;20488;-81
2023/04/22 10:51:50;;;;;;;10.10;9.80;;;18.90;99.90;;;;;;5086471;28;20541;-81
2023/04/22 10:54:58;;;;;;;10.00;9.80;;;19.00;99.90;;;;;;5086206;28;20523;-81
2023/04/22 10:57:40;;;;;;;10.30;10.00;;;18.90;99.90;;;;;;5081038;28;21168;-82
2023/04/22 11:00:21;;;;;;;9.97;9.67;;;19.00;99.90;;;;;;5078795;28;20534;-82
2023/04/22 11:02:52;;;;;;;10.10;9.60;;;19.10;99.90;;;;;;5079656;28;20828;-83
2023/04/22 11:05:25;;;;;;;9.40;9.20;;;19.20;99.90;;;;;;5081643;28;20473;-81
2023/04/22 11:07:55;;;;;;;9.07;8.87;;;19.20;99.90;;;;;;5075288;28;20450;-80
2023/04/22 11:10:39;;;;;;;9.60;9.30;;;19.20;99.90;;;;;;5078313;28;20474;-83
2023/04/22 11:13:12;;;;;;;9.32;9.02;;;19.30;99.90;;;;;;5080900;28;20933;-81
2023/04/22 11:15:42;;;;;;;9.47;9.17;;;19.30;99.90;;;;;;5071430;28;20709;-86
2023/04/22 11:18:17;;;;;;;9.77;9.43;;;19.40;99.90;;;;;;5072538;28;20450;-82
2023/04/22 11:20:47;;;;;;;10.20;9.90;;;19.40;99.90;;;;;;5067999;28;20472;-83
2023/04/22 11:23:21;;;;;;;10.67;10.17;;;19.60;99.90;;;;;;5076630;28;21235;-83
2023/04/22 11:25:56;;;;;;;10.80;10.40;;;19.50;99.90;;;;;;5076501;28;20461;-82
2023/04/22 11:28:24;;;;;;;11.10;10.80;;;19.60;99.90;;;;;;5080472;28;20459;-84
2023/04/22 11:30:53;;;;;;;11.03;10.73;;;19.50;99.90;;;;;;5075200;28;20469;-80
2023/04/22 11:33:21;;;;;;;10.93;10.63;;;19.60;99.90;;;;;;5066970;28;21029;-80
2023/04/22 11:35:50;;;;;;;11.03;10.60;;;19.70;99.90;;;;;;5075467;28;20469;-80
2023/04/22 11:38:18;;;;;;;10.60;10.23;;;19.60;99.90;;;;;;5076639;28;20460;-81
2023/04/22 11:40:47;;;;;;;11.07;10.77;;;19.70;99.90;;;;;;5073574;28;20506;-80
2023/04/22 11:43:18;;;;;;;11.50;11.13;;;19.70;99.90;;;;;;5075955;28;20481;-79
2023/04/22 11:45:46;;;;;;;12.30;11.90;;;19.80;99.90;;;;;;5072012;28;20485;-79
2023/04/22 11:48:15;;;;;;;11.70;11.40;;;19.80;99.90;;;;;;5074287;28;20454;-79
2023/04/22 11:50:44;;;;;;;11.40;11.10;;;19.70;99.90;;;;;;5071106;28;20476;-81
2023/04/22 11:53:16;;;;;;;12.33;11.83;;;19.80;99.90;;;;;;5081617;28;21065;-80
2023/04/22 11:55:46;;;;;;;12.10;11.60;;;19.80;99.90;;;;;;5073818;28;20458;-78
2023/04/22 11:58:18;;;;;;;11.83;11.53;;;19.80;99.90;;;;;;5074117;28;20590;-79
2023/04/22 12:00:48;;;;;;;12.50;12.10;;;19.90;99.90;;;;;;5072556;28;20523;-79
2023/04/22 12:03:18;;;;;;;12.17;11.77;;;19.90;99.90;;;;;;5074532;28;20456;-79
2023/04/22 12:05:50;;;;;;;11.67;11.37;;;20.00;99.90;;;;;;5073122;28;20983;-79
2023/04/22 12:08:20;;;;;;;11.97;11.53;;;20.00;99.90;;;;;;5070330;28;20453;-80
2023/04/22 12:10:51;;;;;;;13.00;12.20;;;19.90;99.90;;;;;;5075663;28;20575;-79
2023/04/22 12:13:22;;;;;;;11.73;11.43;;;19.90;99.90;;;;;;5093109;28;20569;-81
2023/04/22 12:15:55;;;;;;;11.50;11.20;;;19.90;99.90;;;;;;5073265;28;20469;-80
2023/04/22 12:18:30;;;;;;;11.10;10.90;;;19.90;99.90;;;;;;5074164;28;20446;-81
2023/04/22 12:21:08;;;;;;;11.50;11.10;;;19.90;99.90;;;;;;5078394;28;20853;-80
2023/04/22 12:23:42;;;;;;;11.90;11.60;;;19.90;99.90;;;;;;5079491;28;21311;-80
2023/04/22 12:26:11;;;;;;;11.80;11.23;;;20.00;99.90;;;;;;5076725;28;20449;-81
2023/04/22 12:28:41;;;;;;;11.70;11.10;;;20.10;99.90;;;;;;5079502;28;20449;-79
2023/04/22 12:31:10;;;;;;;10.53;10.23;;;20.00;99.90;;;;;;5074555;28;20476;-80
2023/04/22 12:33:38;;;;;;;10.23;9.93;;;20.10;99.90;;;;;;5075084;28;20484;-80
2023/04/22 12:36:07;;;;;;;10.50;10.10;;;20.00;99.90;;;;;;5075535;28;20569;-80
2023/04/22 12:38:36;;;;;;;10.93;10.53;;;20.00;99.90;;;;;;5078750;28;20986;-80
2023/04/22 12:41:05;;;;;;;10.07;9.87;;;20.00;99.90;;;;;;5076623;28;20483;-79
2023/04/22 12:43:35;;;;;;;10.27;10.00;;;20.00;99.90;;;;;;5078117;28;20945;-81